Time;durP1;ratioP1;P1;durP2;ratioP2;P2;SDS_P1;SDS_P2;PMS_P1;PMS_P2;Temp;Humidity;BMP_temperature;BMP_pressure;BME280_temperature;BME280_humidity;BME280_pressure;Samples;Min_cycle;Max_cycle;Signal;HPM_P1;HPM_P2
2022/10/08 00:01:22;;;;;;;12.95;5.93;;;12.90;99.90;;;12.19;100.00;97228.41;6206762;23;20032;-67
2022/10/08 00:03:53;;;;;;;14.45;6.70;;;12.90;99.90;;;12.14;100.00;97236.44;6217321;23;20106;-67
2022/10/08 00:06:24;;;;;;;18.13;6.88;;;12.80;99.90;;;12.21;100.00;97233.53;6204690;23;20055;-66
2022/10/08 00:09:02;;;;;;;13.05;6.25;;;12.80;99.90;;;12.15;100.00;97234.69;6205023;23;20031;-67
2022/10/08 00:11:34;;;;;;;12.13;6.10;;;12.80;99.90;;;12.18;100.00;97238.88;6208026;23;20039;-67
2022/10/08 00:14:01;;;;;;;12.63;7.50;;;12.80;99.90;;;12.20;100.00;97240.50;6206097;23;20059;-66
2022/10/08 00:16:36;;;;;;;13.07;6.35;;;12.90;99.90;;;12.17;100.00;97234.59;6204916;23;20042;-67
2022/10/08 00:19:14;;;;;;;14.50;6.38;;;12.90;99.90;;;12.17;100.00;97240.63;6206244;23;20031;-66
2022/10/08 00:21:44;;;;;;;12.60;6.90;;;13.00;99.90;;;12.17;100.00;97237.22;6206149;23;20024;-67
2022/10/08 00:24:16;;;;;;;11.98;6.25;;;13.00;99.90;;;12.22;100.00;97229.97;6207099;23;20028;-67
2022/10/08 00:26:45;;;;;;;11.52;6.22;;;13.00;99.90;;;12.23;100.00;97227.31;6205534;23;20025;-67
2022/10/08 00:29:15;;;;;;;16.35;7.63;;;13.00;99.90;;;12.18;100.00;97231.06;6206954;23;20759;-66
2022/10/08 00:31:44;;;;;;;10.70;5.57;;;12.90;99.90;;;12.22;100.00;97238.63;6207440;23;20028;-67
2022/10/08 00:34:22;;;;;;;10.73;6.10;;;12.90;99.90;;;12.15;100.00;97232.06;6205871;23;20502;-66
2022/10/08 00:36:54;;;;;;;12.38;6.60;;;12.80;99.90;;;12.06;100.00;97233.41;6204974;23;20055;-66
2022/10/08 00:39:23;;;;;;;13.25;6.65;;;12.80;99.90;;;12.10;100.00;97228.91;6204313;23;20115;-68
2022/10/08 00:41:54;;;;;;;14.65;6.05;;;12.80;99.90;;;12.04;100.00;97243.09;6206307;23;20028;-67
2022/10/08 00:44:45;;;;;;;12.57;5.72;;;12.70;99.90;;;12.09;100.00;97235.03;6205737;23;20490;-67
2022/10/08 00:47:36;;;;;;;20.25;6.97;;;12.70;99.90;;;12.01;100.00;97247.59;6206354;23;20104;-67
2022/10/08 00:50:30;;;;;;;11.05;6.57;;;12.70;99.90;;;12.07;100.00;97248.13;6206604;23;20025;-68
2022/10/08 00:53:02;;;;;;;11.00;6.80;;;12.70;99.90;;;12.12;100.00;97243.50;6206791;23;20086;-67
2022/10/08 00:55:30;;;;;;;11.68;6.40;;;12.80;99.90;;;12.17;100.00;97239.81;6206012;23;20021;-67
2022/10/08 00:58:06;;;;;;;15.75;6.30;;;12.80;99.90;;;12.18;100.00;97242.34;6205775;23;20020;-67
2022/10/08 01:00:33;;;;;;;11.45;6.10;;;12.80;99.90;;;12.25;100.00;97238.47;6206236;23;20021;-67
2022/10/08 01:03:02;;;;;;;11.40;5.65;;;12.80;99.90;;;12.32;100.00;97238.97;6207097;23;20044;-67
2022/10/08 01:05:40;;;;;;;14.43;5.70;;;12.90;99.90;;;12.32;100.00;97229.41;6208215;23;20031;-67
2022/10/08 01:08:32;;;;;;;13.68;6.68;;;13.00;99.90;;;12.39;100.00;97227.31;6204923;23;20389;-67
2022/10/08 01:11:29;;;;;;;12.32;6.18;;;13.00;99.90;;;12.28;100.00;97232.25;6205467;23;20021;-67
2022/10/08 01:14:06;;;;;;;12.52;5.97;;;13.00;99.90;;;12.31;100.00;97230.31;6207714;23;20016;-67
2022/10/08 01:17:13;;;;;;;11.00;5.65;;;13.00;99.90;;;12.35;100.00;97229.22;6216655;23;20061;-67
2022/10/08 01:20:28;;;;;;;15.20;6.20;;;13.00;99.90;;;12.35;100.00;97231.00;6206805;23;20103;-67
2022/10/08 01:23:28;;;;;;;13.02;6.70;;;13.00;99.90;;;12.44;100.00;97225.28;6154548;23;20361;-68
2022/10/08 01:26:14;;;;;;;10.18;5.53;;;13.10;99.90;;;12.47;100.00;97227.69;6208125;23;20020;-67
2022/10/08 01:28:56;;;;;;;13.73;5.38;;;13.10;99.90;;;12.58;100.00;97223.66;6206855;23;20021;-68
2022/10/08 01:31:36;;;;;;;13.77;6.97;;;13.10;99.90;;;12.51;100.00;97231.81;6206078;23;20036;-68
2022/10/08 01:34:14;;;;;;;12.77;5.40;;;13.10;99.90;;;12.49;100.00;97231.06;6204529;23;20055;-68
2022/10/08 01:36:50;;;;;;;15.10;6.63;;;13.10;99.90;;;12.45;100.00;97231.31;6205173;23;20044;-68
2022/10/08 01:39:21;;;;;;;15.02;5.75;;;13.10;99.90;;;12.48;100.00;97229.41;6205003;23;20023;-67
2022/10/08 01:41:57;;;;;;;14.57;6.25;;;13.10;99.90;;;12.36;100.00;97232.66;6206019;23;20256;-68
2022/10/08 01:44:45;;;;;;;9.95;4.72;;;13.00;99.90;;;12.40;100.00;97238.53;6206238;23;20031;-67
2022/10/08 01:47:22;;;;;;;11.30;5.10;;;13.00;99.90;;;12.37;100.00;97231.75;6206131;23;20020;-67
2022/10/08 01:50:00;;;;;;;10.00;4.25;;;13.00;99.90;;;12.30;100.00;97235.63;6207570;23;20054;-67
2022/10/08 01:52:35;;;;;;;12.43;4.93;;;13.00;99.90;;;12.34;100.00;97237.97;6207707;23;20333;-67
2022/10/08 01:55:09;;;;;;;8.57;4.10;;;12.90;99.90;;;12.28;100.00;97235.69;6206864;23;20464;-68
2022/10/08 01:57:38;;;;;;;9.05;4.40;;;12.80;99.90;;;12.30;100.00;97239.06;6207614;23;20024;-68
2022/10/08 02:00:10;;;;;;;9.98;4.35;;;12.80;99.90;;;12.18;100.00;97238.88;6206958;23;20040;-69
2022/10/08 02:02:37;;;;;;;10.18;4.90;;;12.70;99.90;;;12.09;100.00;97243.66;6207515;23;20050;-66
2022/10/08 02:05:05;;;;;;;9.80;3.63;;;12.60;99.90;;;12.00;100.00;97244.16;6211142;23;20447;-68
2022/10/08 02:07:37;;;;;;;10.27;4.65;;;12.60;99.90;;;12.06;100.00;97242.97;6220399;23;20036;-67
2022/10/08 02:10:10;;;;;;;9.17;4.40;;;12.50;99.90;;;12.03;100.00;97244.00;6220888;23;20021;-68
2022/10/08 02:12:39;;;;;;;5.85;3.33;;;12.50;99.90;;;11.98;100.00;97256.41;6221147;23;20050;-68
2022/10/08 02:15:14;;;;;;;10.77;4.55;;;12.40;99.90;;;11.93;100.00;97246.25;6219374;23;20031;-68
2022/10/08 02:18:09;;;;;;;10.55;4.03;;;12.40;99.90;;;11.96;100.00;97257.41;6220380;23;20021;-67
2022/10/08 02:20:57;;;;;;;10.20;4.07;;;12.40;99.90;;;11.82;100.00;97255.53;6213161;23;20021;-67
2022/10/08 02:23:38;;;;;;;13.77;4.88;;;12.40;99.90;;;11.70;100.00;97254.41;6209251;23;20021;-67
2022/10/08 02:26:13;;;;;;;13.48;3.75;;;12.30;99.90;;;11.77;100.00;97265.31;6207920;23;20108;-67
2022/10/08 02:29:04;;;;;;;13.32;3.70;;;12.30;99.90;;;11.83;100.00;97272.78;6207973;23;20332;-67
2022/10/08 02:31:58;;;;;;;9.95;4.18;;;12.40;99.90;;;11.71;100.00;97276.88;6207453;23;20448;-67
2022/10/08 02:34:46;;;;;;;11.60;4.88;;;12.40;99.90;;;11.45;100.00;97283.44;6208387;23;20333;-67
2022/10/08 02:37:23;;;;;;;13.27;5.97;;;12.30;99.90;;;11.23;100.00;97287.09;6207199;23;20371;-66
2022/10/08 02:40:01;;;;;;;11.15;5.05;;;12.20;99.90;;;11.28;100.00;97284.25;6206694;23;20452;-68
2022/10/08 02:42:31;;;;;;;12.93;6.80;;;12.00;99.90;;;11.01;100.00;97291.66;6207371;23;20631;-67
2022/10/08 02:45:29;;;;;;;16.02;5.78;;;11.90;99.90;;;11.16;100.00;97283.13;6207387;23;20032;-66
2022/10/08 02:48:14;;;;;;;7.65;4.32;;;11.80;99.90;;;11.17;100.00;97294.34;6206300;23;20094;-67
2022/10/08 02:50:43;;;;;;;11.85;5.63;;;11.70;99.90;;;11.14;100.00;97286.72;6207888;23;20028;-67
2022/10/08 02:53:14;;;;;;;13.38;6.15;;;11.70;99.90;;;11.04;100.00;97294.97;6207020;23;20024;-67
2022/10/08 02:55:59;;;;;;;14.05;5.10;;;11.70;99.90;;;11.00;100.00;97295.19;6207056;23;20024;-67
2022/10/08 02:58:26;;;;;;;15.32;7.68;;;11.60;99.90;;;10.68;100.00;97310.53;6208434;23;20471;-67
2022/10/08 03:01:19;;;;;;;7.22;4.70;;;11.60;99.90;;;10.78;100.00;97298.78;6206370;23;20029;-66
2022/10/08 03:03:56;;;;;;;11.18;5.18;;;11.50;99.90;;;10.83;100.00;97289.06;6209245;23;20021;-66
2022/10/08 03:06:23;;;;;;;14.43;5.10;;;11.40;99.90;;;10.86;100.00;97299.28;6206624;23;20055;-67
2022/10/08 03:08:51;;;;;;;11.90;5.25;;;11.40;99.90;;;10.79;100.00;97297.91;6207040;23;20244;-67
2022/10/08 03:11:18;;;;;;;15.43;7.40;;;11.30;99.90;;;10.40;100.00;97303.19;6207196;23;20021;-67
2022/10/08 03:13:49;;;;;;;13.30;6.60;;;11.30;99.90;;;10.20;100.00;97304.09;6205963;23;20542;-65
2022/10/08 03:16:21;;;;;;;15.30;6.57;;;11.20;99.90;;;10.06;100.00;97309.91;6206547;23;20024;-65
2022/10/08 03:18:50;;;;;;;16.73;5.18;;;11.10;99.90;;;10.17;100.00;97292.09;6207426;23;20035;-67
2022/10/08 03:21:18;;;;;;;11.95;5.18;;;11.00;99.90;;;10.34;100.00;97293.94;6207751;23;20016;-67
2022/10/08 03:23:45;;;;;;;14.05;6.78;;;10.90;99.90;;;10.27;100.00;97295.94;6209698;23;20016;-67
2022/10/08 03:26:16;;;;;;;16.75;6.95;;;10.90;99.90;;;10.30;100.00;97300.19;6207182;23;20017;-67
2022/10/08 03:28:42;;;;;;;11.88;6.20;;;10.80;99.90;;;10.18;100.00;97298.97;6208785;23;20448;-67
2022/10/08 03:31:09;;;;;;;16.45;7.63;;;10.80;99.90;;;10.21;100.00;97304.00;6208231;23;20329;-66
2022/10/08 03:33:36;;;;;;;10.07;5.63;;;10.80;99.90;;;10.30;100.00;97300.19;6208075;23;20550;-66
2022/10/08 03:36:05;;;;;;;10.02;5.00;;;10.70;99.90;;;10.31;100.00;97303.63;6209148;23;20027;-66
2022/10/08 03:38:33;;;;;;;20.08;6.13;;;10.70;99.90;;;10.24;100.00;97300.41;6207415;23;20059;-67
2022/10/08 03:41:01;;;;;;;10.32;4.80;;;10.60;99.90;;;10.11;100.00;97301.91;6208648;23;20372;-67
2022/10/08 03:43:32;;;;;;;11.52;5.20;;;10.60;99.90;;;10.12;100.00;97308.78;6208970;23;20048;-66
2022/10/08 03:45:59;;;;;;;14.98;5.35;;;10.50;99.90;;;10.00;100.00;97311.00;6208560;23;20492;-66
2022/10/08 03:48:26;;;;;;;8.63;4.75;;;10.50;99.90;;;10.05;100.00;97311.63;6206857;23;20028;-67
2022/10/08 03:51:03;;;;;;;9.57;4.65;;;10.50;99.90;;;10.10;100.00;97305.41;6207414;23;20032;-66
2022/10/08 03:53:36;;;;;;;14.32;4.60;;;10.50;99.90;;;9.87;100.00;97328.00;6208427;23;20028;-67
2022/10/08 03:56:10;;;;;;;10.68;4.45;;;10.50;99.90;;;9.95;100.00;97310.38;6209043;23;20025;-67
2022/10/08 03:58:38;;;;;;;6.82;3.60;;;10.40;99.90;;;9.93;100.00;97313.94;6205994;23;20029;-66
2022/10/08 04:01:13;;;;;;;12.27;5.55;;;10.40;99.90;;;9.67;100.00;97325.44;6206205;23;20020;-67
2022/10/08 04:03:41;;;;;;;11.40;4.45;;;10.30;99.90;;;9.66;100.00;97316.81;6207244;23;20104;-66
2022/10/08 04:06:08;;;;;;;13.23;4.30;;;10.30;99.90;;;9.58;100.00;97326.69;6206413;23;20029;-66
2022/10/08 04:08:36;;;;;;;12.13;4.47;;;10.20;99.90;;;9.41;100.00;97332.56;6207789;23;20055;-66
2022/10/08 04:11:09;;;;;;;13.25;5.97;;;10.10;99.90;;;9.46;100.00;97325.44;6208736;23;20057;-67
2022/10/08 04:13:36;;;;;;;13.95;6.95;;;10.10;99.90;;;9.23;100.00;97338.50;6207562;23;20028;-66
2022/10/08 04:16:10;;;;;;;12.13;6.03;;;10.10;99.90;;;9.35;100.00;97332.81;6208595;23;20061;-67
2022/10/08 04:18:37;;;;;;;12.98;6.38;;;10.00;99.90;;;9.36;100.00;97343.13;6206340;23;20050;-67
2022/10/08 04:21:09;;;;;;;13.23;6.65;;;10.00;99.90;;;9.38;100.00;97338.72;6206681;23;20025;-66
2022/10/08 04:23:38;;;;;;;14.75;7.75;;;10.00;99.90;;;9.26;100.00;97344.44;6208732;23;20404;-67
2022/10/08 04:26:06;;;;;;;13.95;6.35;;;10.00;99.90;;;9.35;100.00;97340.59;6231630;23;20314;-66
2022/10/08 04:28:35;;;;;;;11.13;5.70;;;9.90;99.90;;;9.36;100.00;97335.34;6205852;23;20534;-67
2022/10/08 04:31:18;;;;;;;10.93;5.55;;;10.00;99.90;;;9.36;100.00;97330.16;6207227;23;20108;-66
2022/10/08 04:33:46;;;;;;;11.63;5.40;;;9.90;99.90;;;9.28;100.00;97337.41;6206367;23;20067;-67
2022/10/08 04:36:20;;;;;;;9.93;5.00;;;9.90;99.90;;;9.33;100.00;97339.84;6231553;23;20471;-66
2022/10/08 04:38:48;;;;;;;17.52;6.50;;;9.90;99.90;;;9.01;100.00;97349.75;6207289;23;20028;-67
2022/10/08 04:41:18;;;;;;;18.83;7.40;;;9.90;99.90;;;8.93;100.00;97357.81;6207627;23;20024;-67
2022/10/08 04:43:46;;;;;;;16.38;7.05;;;9.80;99.90;;;8.73;100.00;97356.00;6208234;23;20021;-67
2022/10/08 04:46:17;;;;;;;8.85;3.72;;;9.70;99.90;;;8.91;100.00;97356.19;6205326;23;20032;-66
2022/10/08 04:48:55;;;;;;;15.00;5.63;;;9.70;99.90;;;8.73;100.00;97353.41;6205856;23;20024;-67
2022/10/08 04:51:24;;;;;;;10.73;4.82;;;9.60;99.90;;;8.89;100.00;97350.22;6208555;23;20024;-66
2022/10/08 04:53:52;;;;;;;13.52;6.18;;;9.60;99.90;;;8.82;100.00;97359.13;6205967;23;20031;-66
2022/10/08 04:56:26;;;;;;;13.82;5.07;;;9.60;99.90;;;8.79;100.00;97366.09;6205619;23;20112;-67
2022/10/08 04:58:54;;;;;;;13.15;5.60;;;9.60;99.90;;;8.74;100.00;97367.22;6202770;23;20024;-68
2022/10/08 05:01:22;;;;;;;12.15;4.75;;;9.50;99.90;;;8.80;100.00;97361.78;6204441;23;20020;-67
2022/10/08 05:03:52;;;;;;;14.85;6.43;;;9.50;99.90;;;8.76;100.00;97368.81;6208406;23;20024;-67
2022/10/08 05:06:23;;;;;;;12.73;5.63;;;9.50;99.90;;;8.93;100.00;97367.31;6207445;23;20051;-68
2022/10/08 05:08:50;;;;;;;10.00;4.80;;;9.50;99.90;;;9.00;100.00;97363.59;6181605;23;20028;-67
2022/10/08 05:11:17;;;;;;;13.88;6.10;;;9.60;99.90;;;9.02;100.00;97366.13;6207989;23;20024;-68
2022/10/08 05:13:50;;;;;;;16.70;6.38;;;9.60;99.90;;;9.03;100.00;97368.63;6207578;23;20044;-68
2022/10/08 05:16:17;;;;;;;9.40;4.78;;;9.50;99.90;;;9.00;100.00;97372.19;6207482;23;20021;-67
2022/10/08 05:18:46;;;;;;;13.13;5.78;;;9.50;99.90;;;8.92;100.00;97370.81;6207459;23;20024;-67
2022/10/08 05:21:20;;;;;;;16.52;7.72;;;9.40;99.90;;;8.74;100.00;97373.22;6207631;23;20028;-67
2022/10/08 05:23:57;;;;;;;14.35;6.40;;;9.40;99.90;;;8.63;100.00;97371.94;6208798;23;20405;-67
2022/10/08 05:26:31;;;;;;;15.40;6.50;;;9.40;99.90;;;8.76;100.00;97371.41;6209400;23;20032;-68
2022/10/08 05:29:18;;;;;;;13.82;7.00;;;9.40;99.90;;;8.81;100.00;97378.16;6209488;23;20424;-67
2022/10/08 05:31:45;;;;;;;15.57;8.35;;;9.40;99.90;;;8.68;100.00;97382.94;6209706;23;20048;-67
2022/10/08 05:34:14;;;;;;;16.55;8.45;;;9.30;99.90;;;8.69;100.00;97380.31;6209236;23;20039;-67
2022/10/08 05:36:41;;;;;;;21.30;11.55;;;9.30;99.90;;;8.47;100.00;97389.78;6207807;23;20072;-67
2022/10/08 05:39:09;;;;;;;15.43;8.32;;;9.30;99.90;;;8.64;100.00;97389.16;6208274;23;20028;-67
2022/10/08 05:41:36;;;;;;;20.88;9.88;;;9.30;99.90;;;8.61;100.00;97387.53;6209259;23;20026;-67
2022/10/08 05:44:05;;;;;;;18.33;9.20;;;9.30;99.90;;;8.64;100.00;97392.56;6208832;23;20031;-68
2022/10/08 05:46:34;;;;;;;17.92;9.15;;;9.30;99.90;;;8.70;100.00;97388.91;6208683;23;20028;-67
2022/10/08 05:49:04;;;;;;;21.20;8.35;;;9.30;99.90;;;8.63;100.00;97384.88;6209745;23;20107;-69
2022/10/08 05:51:32;;;;;;;15.82;8.30;;;9.30;99.90;;;8.71;100.00;97394.03;6208136;23;20353;-68
2022/10/08 05:54:00;;;;;;;15.82;7.40;;;9.30;99.90;;;8.71;100.00;97399.22;6209121;23;20102;-67
2022/10/08 05:56:27;;;;;;;16.75;8.32;;;9.30;99.90;;;8.78;100.00;97386.84;6208688;23;20096;-67
2022/10/08 05:58:54;;;;;;;14.73;7.20;;;9.30;99.90;;;8.86;100.00;97394.34;6209287;23;20028;-67
2022/10/08 06:01:26;;;;;;;19.35;8.57;;;9.40;99.90;;;8.91;100.00;97390.66;6208042;23;20023;-67
2022/10/08 06:03:57;;;;;;;14.27;6.87;;;9.50;99.90;;;8.98;100.00;97394.69;6207968;23;20025;-67
2022/10/08 06:06:24;;;;;;;14.48;7.28;;;9.60;99.90;;;9.00;100.00;97400.66;6209527;23;20114;-68
2022/10/08 06:09:00;;;;;;;16.23;7.63;;;9.60;99.90;;;8.99;100.00;97398.16;6207598;23;20024;-68
2022/10/08 06:11:29;;;;;;;15.82;9.00;;;9.70;99.90;;;8.94;100.00;97403.50;6209431;23;20799;-67
2022/10/08 06:13:59;;;;;;;15.50;8.15;;;9.70;99.90;;;9.07;100.00;97392.66;6207392;23;20036;-67
2022/10/08 06:16:27;;;;;;;17.40;7.78;;;9.80;99.90;;;9.20;100.00;97394.69;6206848;23;20021;-67
2022/10/08 06:18:55;;;;;;;14.82;8.20;;;9.80;99.90;;;9.25;100.00;97401.44;6209106;23;20542;-67
2022/10/08 06:21:25;;;;;;;17.88;7.20;;;9.90;99.90;;;9.30;100.00;97397.75;6207151;23;20051;-67
2022/10/08 06:23:55;;;;;;;12.98;6.35;;;10.00;99.90;;;9.38;100.00;97395.72;6207145;23;20043;-67
2022/10/08 06:26:29;;;;;;;16.25;7.80;;;10.10;99.90;;;9.44;100.00;97394.59;6207164;23;20080;-67
2022/10/08 06:29:04;;;;;;;12.38;6.85;;;10.10;99.90;;;9.51;100.00;97396.06;6217482;23;20027;-66
2022/10/08 06:31:33;;;;;;;20.17;8.45;;;10.20;99.90;;;9.54;100.00;97395.94;6208270;23;20024;-66
2022/10/08 06:34:02;;;;;;;12.55;6.75;;;10.30;99.90;;;9.69;100.00;97401.38;6209012;23;20097;-67
2022/10/08 06:36:31;;;;;;;12.90;6.03;;;10.30;99.90;;;9.78;100.00;97400.97;6207325;23;20078;-67
2022/10/08 06:39:01;;;;;;;13.82;6.20;;;10.40;99.90;;;9.82;100.00;97395.59;6206529;23;20043;-67
2022/10/08 06:41:29;;;;;;;13.00;6.38;;;10.50;99.90;;;9.87;100.00;97397.16;6208737;23;20021;-67
2022/10/08 06:43:56;;;;;;;12.80;6.20;;;10.50;99.90;;;9.94;100.00;97391.63;6207165;23;20137;-66
2022/10/08 06:46:23;;;;;;;12.43;5.97;;;10.50;99.90;;;9.91;100.00;97385.75;6208304;23;20024;-67
2022/10/08 06:48:50;;;;;;;19.05;6.70;;;10.60;99.90;;;9.88;100.00;97396.28;6206456;23;20076;-66
2022/10/08 06:51:18;;;;;;;9.95;4.78;;;10.70;99.90;;;10.07;100.00;97381.59;6207764;23;20468;-67
2022/10/08 06:53:52;;;;;;;14.02;5.03;;;10.70;99.90;;;10.11;100.00;97383.16;6208294;23;20044;-67
2022/10/08 06:56:20;;;;;;;13.68;5.88;;;10.80;99.90;;;10.09;100.00;97395.34;6232042;23;20020;-67
2022/10/08 06:58:47;;;;;;;14.43;5.20;;;10.80;99.90;;;10.15;100.00;97399.41;6207897;23;20116;-68
2022/10/08 07:01:23;;;;;;;16.55;5.93;;;10.80;99.90;;;9.99;100.00;97402.69;6206733;23;20021;-68
2022/10/08 07:04:01;;;;;;;10.95;5.30;;;10.80;99.90;;;10.19;100.00;97401.78;6206652;23;20473;-67
2022/10/08 07:06:28;;;;;;;11.98;5.30;;;10.90;99.90;;;10.19;100.00;97409.56;6207609;23;20043;-68
2022/10/08 07:08:59;;;;;;;15.80;5.20;;;10.90;99.90;;;10.27;100.00;97409.25;6207934;23;20021;-68
2022/10/08 07:11:27;;;;;;;11.35;4.75;;;11.00;99.90;;;10.24;100.00;97407.66;6207515;23;20024;-68
2022/10/08 07:13:54;;;;;;;12.27;4.80;;;11.00;99.90;;;10.30;100.00;97405.72;6208762;23;20471;-67
2022/10/08 07:16:24;;;;;;;16.17;5.13;;;11.00;99.90;;;10.38;100.00;97414.84;6206275;23;20053;-66
2022/10/08 07:18:54;;;;;;;11.57;4.85;;;11.00;99.90;;;10.38;100.00;97420.03;6206865;23;20044;-68
2022/10/08 07:21:21;;;;;;;13.30;4.65;;;11.10;99.90;;;10.44;100.00;97424.94;6207523;23;20043;-67
2022/10/08 07:23:49;;;;;;;14.02;4.63;;;11.10;99.90;;;10.45;100.00;97431.81;6206953;23;20337;-68
2022/10/08 07:26:23;;;;;;;13.73;4.93;;;11.20;99.90;;;10.56;100.00;97435.69;6208420;23;20099;-68
2022/10/08 07:29:04;;;;;;;12.35;4.28;;;11.40;99.90;;;10.66;100.00;97439.56;6208271;23;20043;-67
2022/10/08 07:31:34;;;;;;;15.95;4.43;;;11.50;99.90;;;10.90;100.00;97434.97;6208310;23;20031;-67
2022/10/08 07:34:05;;;;;;;13.18;4.35;;;11.60;99.90;;;10.82;100.00;97452.69;6208809;23;20020;-68
2022/10/08 07:36:33;;;;;;;12.05;3.95;;;11.70;99.90;;;11.63;100.00;97440.19;6206333;23;20484;-67
2022/10/08 07:39:04;;;;;;;13.00;3.95;;;11.90;99.90;;;12.23;100.00;97438.09;6206834;23;20365;-68
2022/10/08 07:41:32;;;;;;;10.57;3.80;;;;;;;12.76;100.00;97437.03;6208573;23;20027;-67
2022/10/08 07:44:01;;;;;;;10.30;4.30;;;12.70;99.90;;;12.54;100.00;97457.31;6208140;23;20051;-68
2022/10/08 07:46:31;;;;;;;10.77;3.40;;;13.00;99.90;;;13.38;100.00;97451.94;6208185;23;20028;-68
2022/10/08 07:49:00;;;;;;;11.65;3.60;;;13.40;99.90;;;13.42;100.00;97471.69;6207653;23;20021;-69
2022/10/08 07:51:33;;;;;;;11.48;3.13;;;13.70;99.90;;;13.79;100.00;97480.88;6206369;23;20027;-69
2022/10/08 07:54:01;;;;;;;8.40;3.20;;;14.00;99.90;;;14.07;100.00;97499.34;6206191;23;20028;-69
2022/10/08 07:56:30;;;;;;;15.55;3.10;;;14.40;99.90;;;13.91;100.00;97525.47;6205498;23;20017;-68
2022/10/08 07:58:59;;;;;;;11.55;3.03;;;14.70;99.90;;;14.60;100.00;97524.94;6208433;23;20483;-68
2022/10/08 08:01:28;;;;;;;13.40;2.85;;;15.10;99.90;;;14.31;100.00;97559.75;6205945;23;20021;-69
2022/10/08 08:04:04;;;;;;;16.85;2.63;;;15.20;99.90;;;14.50;100.00;97555.09;6206673;23;20023;-68
2022/10/08 08:06:36;;;;;;;7.78;2.45;;;15.30;99.90;;;14.18;100.00;97591.75;6205090;23;20039;-66
2022/10/08 08:09:03;;;;;;;10.18;2.83;;;15.50;99.90;;;14.87;100.00;97579.09;6207045;23;20047;-68
2022/10/08 08:11:30;;;;;;;11.93;3.00;;;15.70;99.90;;;14.07;100.00;97616.78;6207618;23;20337;-66
2022/10/08 08:13:57;;;;;;;9.57;2.38;;;15.80;99.90;;;14.19;100.00;97622.16;6208076;23;20017;-69
2022/10/08 08:16:27;;;;;;;12.48;2.55;;;15.80;99.90;;;14.57;100.00;97628.75;6205571;23;20028;-69
2022/10/08 08:18:58;;;;;;;9.77;2.30;;;16.00;99.90;;;14.95;100.00;97629.13;6208758;23;20123;-69
2022/10/08 08:21:29;;;;;;;7.75;1.75;;;16.20;99.90;;;15.23;100.00;97632.69;6207622;23;20027;-66
2022/10/08 08:24:02;;;;;;;12.23;2.15;;;16.30;99.90;;;15.30;100.00;97630.56;6207692;23;20035;-68
2022/10/08 08:26:32;;;;;;;11.63;2.30;;;16.60;99.90;;;15.66;100.00;97620.44;6205877;23;20039;-67
2022/10/08 08:29:06;;;;;;;8.50;1.90;;;16.70;99.90;;;14.56;100.00;97655.81;6206735;23;20027;-66
2022/10/08 08:31:37;;;;;;;12.70;1.80;;;16.70;99.90;;;14.89;100.00;97626.03;6206349;23;20029;-68
2022/10/08 08:34:07;;;;;;;9.13;1.83;;;16.50;99.90;;;14.61;100.00;97635.50;6205995;23;20471;-68
2022/10/08 08:36:43;;;;;;;9.68;1.63;;;16.40;99.90;;;14.90;100.00;97636.41;6204275;23;20376;-68
2022/10/08 08:39:16;;;;;;;7.20;1.42;;;16.10;99.90;;;15.10;100.00;97644.81;6207698;23;20460;-68
2022/10/08 08:41:55;;;;;;;;;;;16.50;99.90;;;15.24;100.00;97650.91;6207643;23;20024;-68
2022/10/08 08:45:08;;;;;;;11.88;1.75;;;17.00;99.90;;;14.37;100.00;97676.91;6207375;23;19920;-69
2022/10/08 08:48:19;;;;;;;10.67;1.53;;;17.20;99.90;;;14.66;100.00;97671.81;6207030;23;20028;-69
2022/10/08 08:50:49;;;;;;;8.73;1.42;;;16.90;99.90;;;14.27;100.00;97675.72;6207606;23;20055;-68
2022/10/08 08:53:17;;;;;;;7.30;1.50;;;16.60;99.90;;;13.91;100.00;97682.91;6206003;23;20024;-69
2022/10/08 08:55:48;;;;;;;8.63;1.17;;;16.30;99.90;;;13.81;100.00;97690.34;6204787;23;20039;-67
2022/10/08 08:58:57;;;;;;;7.65;1.67;;;16.10;99.90;;;13.85;100.00;97677.16;6205380;23;20024;-67
2022/10/08 09:01:40;;;;;;;11.48;1.45;;;16.00;99.90;;;14.19;100.00;97679.59;6143813;23;20789;-67
2022/10/08 09:04:24;;;;;;;7.88;1.70;;;16.00;99.90;;;13.85;100.00;97682.38;6202203;23;20143;-68
2022/10/08 09:06:52;;;;;;;9.95;1.70;;;15.90;99.90;;;13.89;100.00;97676.03;6204389;23;20540;-68
2022/10/08 09:09:34;;;;;;;6.28;2.42;;;15.80;99.90;;;13.56;100.00;97674.34;6202574;23;20025;-69
2022/10/08 09:12:42;;;;;;;7.38;1.65;;;15.50;99.90;;;13.68;100.00;97673.66;6203651;23;20440;-68
2022/10/08 09:15:29;;;;;;;7.93;1.50;;;15.20;99.90;;;13.72;100.00;97675.19;6201700;23;20091;-67
2022/10/08 09:17:56;;;;;;;8.88;1.45;;;15.20;99.90;;;13.75;100.00;97680.28;6202756;23;20021;-69
2022/10/08 09:20:24;;;;;;;24.58;11.45;;;15.20;99.90;;;13.50;100.00;97687.69;6204840;23;20021;-67
2022/10/08 09:22:53;;;;;;;8.27;2.17;;;15.20;99.90;;;13.57;100.00;97687.31;6206128;23;20027;-68
2022/10/08 09:25:27;;;;;;;7.05;1.60;;;15.20;99.90;;;13.91;100.00;97669.84;6206435;23;20020;-68
2022/10/08 09:28:00;;;;;;;9.30;1.40;;;15.30;99.90;;;13.59;100.00;97693.28;6203460;23;20068;-68
2022/10/08 09:30:33;;;;;;;7.65;1.30;;;15.40;99.90;;;13.50;100.00;97698.13;6200103;23;20095;-68
2022/10/08 09:33:13;;;;;;;7.47;1.17;;;15.50;99.90;;;13.64;100.00;97700.88;6205511;23;20369;-68
2022/10/08 09:35:45;;;;;;;7.60;1.30;;;15.30;99.90;;;13.75;100.00;97689.84;6206065;23;20507;-68
2022/10/08 09:38:27;;;;;;;6.97;1.13;;;15.40;99.90;;;13.59;100.00;97697.63;6205024;23;20044;-68
2022/10/08 09:41:17;;;;;;;5.40;1.05;;;15.30;99.90;;;13.56;100.00;97696.03;6179858;23;20017;-68
2022/10/08 09:44:14;;;;;;;7.25;1.40;;;15.20;99.90;;;13.50;100.00;97700.72;6205111;23;20055;-68
2022/10/08 09:46:42;;;;;;;8.32;1.48;;;15.20;99.90;;;14.06;100.00;97682.97;6205924;23;20114;-68
2022/10/08 09:49:36;;;;;;;8.40;2.15;;;15.20;99.90;;;14.39;100.00;97675.88;6205653;23;20025;-69
2022/10/08 09:52:24;;;;;;;6.18;1.67;;;15.30;99.90;;;14.11;100.00;97691.38;6205389;23;20100;-68
2022/10/08 09:55:14;;;;;;;8.48;1.55;;;15.30;99.90;;;14.36;100.00;97688.25;6204811;23;20098;-67
2022/10/08 09:57:54;;;;;;;8.23;1.58;;;15.30;99.90;;;14.51;100.00;97686.56;6205874;23;20025;-68
2022/10/08 10:00:36;;;;;;;10.13;1.90;;;15.50;99.90;;;14.31;100.00;97701.56;6207043;23;20024;-67
2022/10/08 10:03:06;;;;;;;7.63;1.53;;;15.60;99.90;;;14.38;100.00;97695.06;6202841;23;20024;-67
2022/10/08 10:05:35;;;;;;;7.97;1.20;;;15.80;99.90;;;14.53;100.00;97695.13;6204723;23;20035;-68
2022/10/08 10:08:03;;;;;;;5.90;1.50;;;16.00;99.90;;;14.43;100.00;97705.25;6207918;23;20025;-67
2022/10/08 10:10:37;;;;;;;4.75;1.20;;;16.30;99.90;;;15.12;100.00;97710.94;6206576;23;20044;-68
2022/10/08 10:13:20;;;;;;;4.13;0.80;;;16.50;99.90;;;14.91;100.00;97711.25;6206948;23;20547;-68
2022/10/08 10:15:57;;;;;;;5.18;1.27;;;16.60;99.90;;;14.92;100.00;97707.72;6206149;23;20028;-68
2022/10/08 10:18:32;;;;;;;8.38;1.90;;;16.80;99.90;;;15.18;100.00;97713.19;6205973;23;20067;-67
2022/10/08 10:21:05;;;;;;;8.23;1.88;;;16.90;99.90;;;15.01;100.00;97716.81;6205776;23;20028;-68
2022/10/08 10:23:40;;;;;;;5.85;1.60;;;16.80;99.90;;;15.08;100.00;97722.53;6207899;23;20032;-68
2022/10/08 10:26:23;;;;;;;8.23;1.08;;;16.80;99.90;;;14.51;100.00;97730.97;6205711;23;20356;-68
2022/10/08 10:28:59;;;;;;;6.40;1.13;;;16.80;99.90;;;14.89;100.00;97720.94;6205346;23;20075;-68
2022/10/08 10:31:59;;;;;;;8.43;0.95;;;16.70;99.90;;;14.84;100.00;97729.06;6205671;23;20100;-68
2022/10/08 10:34:29;;;;;;;6.65;1.70;;;16.50;99.90;;;14.42;100.00;97745.38;6173240;23;20344;-68
2022/10/08 10:36:58;;;;;;;7.50;1.30;;;16.40;99.90;;;14.60;100.00;97739.16;6207812;23;20079;-67
2022/10/08 10:39:40;;;;;;;8.85;1.48;;;16.30;99.90;;;14.20;100.00;97750.91;6205268;23;20031;-68